createdAt,value
2018-08-11T00:01:11.672Z,99.60
2018-08-11T00:06:16.589Z,99.60
2018-08-11T00:11:21.496Z,99.60
2018-08-11T00:16:26.736Z,99.60
2018-08-11T00:21:31.450Z,99.60
2018-08-11T00:26:36.355Z,99.60
2018-08-11T00:31:41.166Z,99.60
2018-08-11T00:36:46.038Z,99.60
2018-08-11T00:41:50.961Z,99.60
2018-08-11T00:46:56.476Z,99.60
2018-08-11T00:52:02.145Z,99.60
2018-08-11T00:57:06.797Z,99.60
2018-08-11T01:02:11.515Z,99.60
2018-08-11T01:07:17.021Z,99.60
2018-08-11T01:12:22.229Z,99.60
2018-08-11T01:17:27.084Z,99.60
2018-08-11T01:22:31.808Z,99.60
2018-08-11T01:27:36.910Z,99.60
2018-08-11T01:32:41.910Z,99.60
2018-08-11T01:37:46.992Z,99.60
2018-08-11T01:42:51.932Z,99.60
2018-08-11T01:47:56.737Z,99.60
2018-08-11T01:53:03.024Z,99.60
2018-08-11T01:58:07.888Z,99.60
2018-08-11T02:03:12.805Z,99.60
2018-08-11T02:08:17.756Z,99.60
2018-08-11T02:13:22.737Z,99.60
2018-08-11T02:18:28.578Z,99.60
2018-08-11T02:23:33.859Z,99.60
2018-08-11T02:28:38.631Z,99.60
2018-08-11T02:33:44.125Z,99.60
2018-08-11T02:38:48.760Z,99.60
2018-08-11T02:43:53.431Z,99.60
2018-08-11T02:48:58.004Z,99.60
2018-08-11T02:54:03.183Z,99.60
2018-08-11T02:59:08.517Z,99.60
2018-08-11T03:04:14.194Z,99.60
2018-08-11T03:09:19.146Z,99.60
2018-08-11T03:14:23.877Z,99.60
2018-08-11T03:19:28.640Z,99.60
2018-08-11T03:24:33.559Z,99.60
2018-08-11T03:29:38.832Z,99.60
2018-08-11T03:34:43.866Z,99.60
2018-08-11T03:39:49.040Z,99.60
2018-08-11T03:44:53.716Z,99.60
2018-08-11T03:49:58.618Z,99.60
2018-08-11T03:55:03.459Z,99.60
2018-08-11T04:00:10.391Z,99.60
2018-08-11T04:05:14.829Z,99.60
2018-08-11T04:10:19.741Z,99.60
2018-08-11T04:15:24.670Z,99.60
2018-08-11T04:20:29.531Z,99.60
2018-08-11T04:25:34.460Z,99.60
2018-08-11T04:30:39.394Z,99.60
2018-08-11T04:35:44.412Z,99.60
2018-08-11T04:40:49.739Z,99.60
2018-08-11T04:45:54.325Z,99.60
2018-08-11T04:50:58.980Z,99.60
2018-08-11T04:56:05.125Z,99.60
2018-08-11T05:01:10.112Z,99.60
2018-08-11T05:06:15.677Z,99.60
2018-08-11T05:11:20.996Z,99.60
2018-08-11T05:16:25.805Z,99.60
2018-08-11T05:21:31.127Z,99.60
2018-08-11T05:26:35.866Z,99.60
2018-08-11T05:31:40.681Z,99.60
2018-08-11T05:36:46.432Z,99.60
2018-08-11T05:41:51.222Z,99.60
2018-08-11T05:46:56.069Z,99.60
2018-08-11T05:52:00.793Z,99.60
2018-08-11T05:57:05.640Z,99.60
2018-08-11T06:02:11.793Z,99.60
2018-08-11T06:07:17.125Z,99.60
2018-08-11T06:12:22.126Z,99.60
2018-08-11T06:17:26.910Z,99.60
2018-08-11T06:22:31.830Z,99.60
2018-08-11T06:27:36.764Z,99.60
2018-08-11T06:32:41.857Z,99.60
2018-08-11T06:37:46.596Z,99.60
2018-08-11T06:42:52.088Z,98.00
2018-08-11T06:47:56.955Z,95.40
2018-08-11T06:53:01.785Z,95.00
2018-08-11T06:58:07.167Z,94.30
2018-08-11T07:03:11.868Z,93.70
2018-08-11T07:08:16.619Z,94.10
2018-08-11T07:13:21.392Z,93.00
2018-08-11T07:18:26.175Z,92.10
2018-08-11T07:23:31.841Z,90.60
2018-08-11T07:28:36.600Z,88.70
2018-08-11T07:33:41.886Z,88.50
2018-08-11T07:38:47.342Z,89.80
2018-08-11T07:43:53.595Z,87.40
2018-08-11T07:48:58.536Z,85.90
2018-08-11T07:54:03.878Z,86.00
2018-08-11T07:59:08.675Z,84.80
2018-08-11T08:04:13.283Z,86.10
2018-08-11T08:09:18.068Z,83.30
2018-08-11T08:14:23.070Z,83.70
2018-08-11T08:19:28.305Z,83.80
2018-08-11T08:24:33.091Z,82.50
2018-08-11T08:29:37.950Z,82.20
2018-08-11T08:34:42.695Z,82.20
2018-08-11T08:39:52.142Z,81.90
2018-08-11T08:44:56.996Z,82.10
2018-08-11T08:50:02.126Z,82.20
2018-08-11T08:55:06.816Z,81.50
2018-08-11T09:00:11.691Z,82.50
2018-08-11T09:05:17.324Z,83.00
2018-08-11T09:10:22.073Z,82.40
2018-08-11T09:15:27.406Z,81.70
2018-08-11T09:20:32.207Z,81.30
2018-08-11T09:25:37.002Z,81.30
2018-08-11T09:30:41.775Z,80.10
2018-08-11T09:35:46.953Z,80.60
2018-08-11T09:40:51.749Z,78.10
2018-08-11T09:45:56.973Z,77.20
2018-08-11T09:51:01.588Z,76.60
2018-08-11T09:56:07.311Z,75.30
2018-08-11T10:01:16.944Z,75.30
2018-08-11T10:06:21.597Z,74.30
2018-08-11T10:11:26.295Z,74.00
2018-08-11T10:16:31.024Z,72.40
2018-08-11T10:21:35.746Z,73.00
2018-08-11T10:26:41.096Z,71.60
2018-08-11T10:31:45.835Z,72.50
2018-08-11T10:36:50.565Z,73.70
2018-08-11T10:42:01.932Z,74.00
2018-08-11T10:47:06.632Z,72.00
2018-08-11T10:52:11.451Z,69.70
2018-08-11T10:57:16.383Z,69.30
2018-08-11T11:02:21.894Z,68.40
2018-08-11T11:07:26.989Z,67.90
2018-08-11T11:12:31.947Z,69.00
2018-08-11T11:17:36.747Z,68.10
2018-08-11T11:22:42.461Z,67.90
2018-08-11T11:27:47.400Z,66.20
2018-08-11T11:32:52.626Z,66.10
2018-08-11T11:37:57.384Z,67.40
2018-08-11T11:43:02.319Z,65.40
2018-08-11T11:48:07.327Z,65.50
2018-08-11T11:53:12.287Z,64.50
2018-08-11T11:58:16.857Z,63.90
2018-08-11T12:03:22.546Z,62.40
2018-08-11T12:08:27.497Z,61.60
2018-08-11T12:13:32.318Z,62.50
2018-08-11T12:18:37.291Z,60.80
2018-08-11T12:23:42.321Z,58.00
2018-08-11T12:28:47.398Z,57.70
2018-08-11T12:33:52.855Z,57.00
2018-08-11T12:38:57.896Z,57.70
2018-08-11T12:44:02.421Z,57.60
2018-08-11T12:49:07.267Z,59.50
2018-08-11T12:54:11.968Z,57.50
2018-08-11T12:59:16.712Z,56.20
2018-08-11T13:04:21.640Z,56.60
2018-08-11T13:09:26.694Z,56.90
2018-08-11T13:14:32.572Z,56.60
2018-08-11T13:19:38.118Z,54.70
2018-08-11T13:25:45.954Z,55.40
2018-08-11T13:30:51.963Z,54.20
2018-08-11T13:35:57.094Z,54.10
2018-08-11T13:41:01.983Z,54.40
2018-08-11T13:46:07.001Z,53.70
2018-08-11T13:51:11.985Z,54.60
2018-08-11T13:56:17.799Z,54.20
2018-08-11T14:01:22.535Z,52.90
2018-08-11T14:06:27.725Z,51.90
2018-08-11T14:11:32.440Z,51.90
2018-08-11T14:16:38.160Z,52.10
2018-08-11T14:21:42.888Z,52.50
2018-08-11T14:26:47.669Z,54.10
2018-08-11T14:31:52.925Z,56.50
2018-08-11T14:36:58.806Z,54.20
2018-08-11T14:42:03.714Z,51.40
2018-08-11T14:47:08.585Z,55.50
2018-08-11T14:52:20.873Z,56.70
2018-08-11T14:57:25.700Z,56.10
2018-08-11T15:02:31.771Z,57.00
2018-08-11T15:07:36.733Z,57.60
2018-08-11T15:12:42.116Z,55.90
2018-08-11T15:17:47.814Z,55.10
2018-08-11T15:22:52.587Z,58.20
2018-08-11T15:27:57.549Z,56.50
2018-08-11T15:33:02.243Z,56.70
2018-08-11T15:38:07.201Z,56.60
2018-08-11T15:43:12.024Z,57.40
2018-08-11T15:48:16.735Z,57.00
2018-08-11T15:53:21.485Z,56.20
2018-08-11T15:58:27.406Z,55.80
2018-08-11T16:03:32.428Z,55.00
2018-08-11T16:08:37.157Z,54.20
2018-08-11T16:13:42.501Z,54.40
2018-08-11T16:18:47.420Z,55.10
2018-08-11T16:23:52.260Z,56.10
2018-08-11T16:28:57.661Z,56.40
2018-08-11T16:34:02.653Z,57.30
2018-08-11T16:39:09.494Z,57.50
2018-08-11T16:44:14.406Z,58.30
2018-08-11T16:49:19.041Z,57.00
2018-08-11T16:54:23.859Z,57.30
2018-08-11T16:59:28.735Z,57.80
2018-08-11T17:04:33.351Z,59.10
2018-08-11T17:09:37.864Z,58.20
2018-08-11T17:14:42.650Z,60.10
2018-08-11T17:19:47.432Z,64.50
2018-08-11T17:24:52.466Z,68.00
2018-08-11T17:29:57.051Z,71.30
2018-08-11T17:35:02.034Z,71.60
2018-08-11T17:40:08.016Z,70.00
2018-08-11T17:45:13.073Z,71.90
2018-08-11T17:50:17.942Z,72.10
2018-08-11T17:55:22.885Z,73.10
2018-08-11T18:00:27.829Z,73.40
2018-08-11T18:05:32.709Z,74.00
2018-08-11T18:10:37.451Z,74.10
2018-08-11T18:15:42.292Z,75.10
2018-08-11T18:20:48.352Z,76.10
2018-08-11T18:25:53.504Z,77.30
2018-08-11T18:30:58.260Z,78.50
2018-08-11T18:36:03.052Z,79.90
2018-08-11T18:41:08.205Z,81.70
2018-08-11T18:46:13.593Z,82.60
2018-08-11T18:51:19.199Z,83.80
2018-08-11T18:56:24.039Z,85.10
2018-08-11T19:01:30.027Z,86.40
2018-08-11T19:06:34.969Z,87.00
2018-08-11T19:11:40.816Z,88.50
2018-08-11T19:16:45.673Z,89.50
2018-08-11T19:21:50.589Z,88.80
2018-08-11T19:26:55.375Z,88.60
2018-08-11T19:32:00.287Z,88.80
2018-08-11T19:37:05.027Z,90.60
2018-08-11T19:42:09.957Z,91.90
2018-08-11T19:47:15.261Z,92.50
2018-08-11T19:52:21.266Z,92.60
2018-08-11T19:57:25.937Z,92.10
2018-08-11T20:02:30.633Z,92.40
2018-08-11T20:07:36.127Z,92.00
2018-08-11T20:12:41.362Z,91.30
2018-08-11T20:17:46.355Z,92.20
2018-08-11T20:22:51.121Z,91.10
2018-08-11T20:27:55.844Z,90.30
2018-08-11T20:33:00.644Z,89.30
2018-08-11T20:38:05.616Z,88.90
2018-08-11T20:43:10.685Z,88.80
2018-08-11T20:48:15.393Z,88.70
2018-08-11T20:53:20.787Z,88.50
2018-08-11T20:58:25.498Z,89.40
2018-08-11T21:03:30.105Z,90.80
2018-08-11T21:08:35.002Z,93.70
2018-08-11T21:13:40.019Z,94.70
2018-08-11T21:18:44.857Z,94.50
2018-08-11T21:23:49.647Z,94.50
2018-08-11T21:28:54.335Z,94.30
2018-08-11T21:33:59.047Z,93.70
2018-08-11T21:39:04.309Z,93.20
2018-08-11T21:44:09.066Z,93.90
2018-08-11T21:49:14.604Z,93.50
2018-08-11T21:54:19.353Z,93.80
2018-08-11T21:59:24.911Z,93.90
2018-08-11T22:04:35.692Z,94.70
2018-08-11T22:09:40.528Z,95.30
2018-08-11T22:14:45.818Z,95.10
2018-08-11T22:19:50.763Z,94.70
2018-08-11T22:24:55.460Z,95.40
2018-08-11T22:30:00.313Z,95.90
2018-08-11T22:35:05.551Z,96.10
2018-08-11T22:40:10.256Z,97.10
2018-08-11T22:45:15.369Z,97.50
2018-08-11T22:50:20.676Z,97.90
2018-08-11T22:55:25.322Z,97.60
2018-08-11T23:00:30.043Z,96.90
2018-08-11T23:05:34.794Z,96.80
2018-08-11T23:10:39.745Z,95.90
2018-08-11T23:15:44.551Z,94.50
2018-08-11T23:20:49.815Z,94.80
2018-08-11T23:25:54.564Z,94.00
2018-08-11T23:30:59.740Z,92.80
2018-08-11T23:36:05.480Z,91.40
2018-08-11T23:41:11.009Z,91.90
2018-08-11T23:46:15.715Z,91.80
2018-08-11T23:51:21.633Z,91.40
2018-08-11T23:56:27.001Z,90.70
